• Join FlightAware (Why Join?)
  • Login
  • US Flag 
07:56PM EDT


 

Airport Tracker/Info


-or-


 

Live Flight TrackerFlight Track Log ✈ ACA860 ✈ 11-Apr-2013 ✈ CYHZ - EGLL / LHR

Flight Track Log - Related Links

Times and Time Zones

All times are in EDT time to prevent confusion due to time zone crossing. See the ACA860 flight status page for this flight to view local times or setup timezone preferences in your user account.

Time Position Orientation Groundspeed Altitude Reporting Facility
EDT Latitude Longitude Course Direction KTS MPH feet Rate Location/Type
11:01PM 44.8833 -63.4833 90° East 160 184 2,000  Level Moncton Center
11:02PM 44.9167 -63.4333 47° Northeast 200 230 3,900 2,340 Climbing Moncton Center
11:03PM 44.9667 -63.3833 35° Northeast 250 288 6,700 2,940 Climbing Moncton Center
11:04PM 45.0333 -63.3167 35° Northeast 270 311 9,800 2,340 Climbing Moncton Center
11:05PM 44.9500 -62.5391 90° East  Level FlightAware Approximate
11:05PM 45.0500 -63.1833 80° East 340 391 11,400  Level Moncton Center
11:06PM 44.9500 -62.3408 90° East  Level FlightAware Approximate
11:06PM 45.0500 -63.0500 90° East 410 472 13,200  Level Moncton Center
11:07PM 45.0500 -62.8667 90° East 460 529 15,400 2,220 Climbing Moncton Center
11:08PM 45.0667 -62.6667 83° East 490 564 17,700 2,340 Climbing Moncton Center
11:09PM 45.0500 -62.4500 96° East 510 587 20,100 2,220 Climbing Moncton Center
11:10PM 45.0500 -62.2500 90° East 530 610 22,200 2,100 Climbing Moncton Center
11:11PM 45.0500 -62.0333 90° East 550 633 24,300 2,580 Climbing Moncton Center
11:12PM 45.0500 -61.8167 90° East 550 633 27,400 2,100 Climbing Moncton Center
11:13PM 45.0333 -61.6000 96° East 550 633 28,600 1,260 Climbing Moncton Center
11:14PM 45.0333 -61.3667 90° East 570 656 30,000 1,560 Climbing Moncton Center
11:15PM 45.0500 -61.1500 84° East 570 656 31,800 1,680 Climbing Moncton Center
11:15PM 45.0500 -61.0667 90° East 570 656 32,200 840 Climbing Gander Center
11:16PM 45.0500 -60.8500 90° East 580 667 32,900 420 Climbing Gander Center
11:17PM 45.0500 -60.6833 90° East 580 667 33,000 60 Climbing Moncton Center
11:17PM 45.0333 -60.6167 109° East 590 679 33,000  Level Gander Center
11:18PM 45.0500 -60.3833 84° East 590 679 33,000  Level Gander Center
11:19PM 45.0500 -60.2333 90° East 590 679 33,000  Level Moncton Center
11:20PM 45.0500 -60.0000 90° East 590 679 33,000  Level Moncton Center
11:21PM 45.0667 -59.7500 85° East 590 679 33,000  Level Moncton Center
11:21PM 45.0667 -59.6833 90° East 590 679 33,000  Level Gander Center
11:22PM 45.0667 -59.5333 90° East 590 679 33,000  Level Moncton Center
11:23PM 45.0500 -59.3000 96° East 590 679 33,000  Level Moncton Center
11:24PM 45.0667 -59.0667 84° East 590 679 33,000  Level Moncton Center
11:24PM 45.0667 -59.0000 90° East 590 679 33,000  Level Gander Center
11:25PM 45.0667 -58.8333 90° East 590 679 33,000  Level Moncton Center
11:26PM 45.0667 -58.6000 90° East 590 679 33,000  Level Moncton Center
11:26PM 45.0833 -58.5167 74° East 590 679 33,000  Level Gander Center
11:27PM 45.0667 -58.3500 98° East 600 690 33,000  Level Moncton Center
11:28PM 45.0667 -58.1167 90° East 600 690 33,000  Level Moncton Center
11:28PM 45.0667 -58.0500 90° East 600 690 33,000  Level Gander Center
11:29PM 45.0667 -57.8167 90° East 600 690 33,000  Level Gander Center
11:30PM 45.0667 -57.6500 90° East 610 702 33,000  Level Moncton Center
11:31PM 45.0500 -57.4000 95° East 610 702 33,000  Level Moncton Center
11:31PM 45.0500 -57.3333 90° East 610 702 33,000  Level Gander Center
11:32PM 45.0667 -57.1000 84° East 620 713 33,000  Level Gander Center
11:33PM 45.0500 -56.9333 98° East 610 702 33,000  Level Moncton Center
11:34PM 45.0500 -56.6667 90° East 620 713 33,000  Level Moncton Center
11:34PM 45.0667 -56.6000 70° East 610 702 33,000  Level Gander Center
11:35PM 45.0500 -56.3667 96° East 620 713 33,000  Level Gander Center
11:36PM 45.0333 -56.2000 98° East 610 702 33,000  Level Moncton Center
11:37PM 45.0333 -55.9667 90° East 620 713 33,000  Level Moncton Center
11:38PM 45.0333 -55.7000 90° East 610 702 33,000  Level Moncton Center
11:39PM 45.0333 -55.4667 90° East 610 702 33,000  Level Moncton Center
11:39PM 45.0167 -55.4000 109° East 610 702 33,000  Level Gander Center
11:40PM 45.0167 -55.2500 90° East 610 702 33,000  Level Moncton Center
11:41PM 45.0167 -55.0000 90° East 610 702 33,000  Level Moncton Center
11:41PM 45.0000 -54.9333 109° East 610 702 33,000  Level Gander Center
11:42PM 45.0000 -54.6833 90° East 600 690 33,000  Level Gander Center
11:43PM 45.0000 -54.5333 90° East 600 690 33,000  Level Gander Center
11:44PM 44.9833 -54.3000 96° East 590 679 33,000  Level Gander Center
11:44PM 45.0000 -54.2333 71° East 600 690 33,000  Level Gander Center
11:45PM 45.0000 -54.0667 90° East 610 702 33,000  Level Moncton Center
11:46PM 45.0000 -53.8333 90° East 600 690 33,000  Level Moncton Center
11:47PM 45.0000 -53.6167 90° East 600 690 33,000  Level Gander Center
11:48PM 45.0000 -53.3833 90° East 600 690 33,000  Level Gander Center
11:48PM 45.0000 -53.3000 90° East 590 679 33,000  Level Gander Center
11:49PM 45.0167 -53.0500 85° East 590 679 33,000  Level Gander Center
11:50PM 45.0167 -52.8833 90° East 580 667 33,000  Level Moncton Center
11:50PM 45.0167 -52.8333 90° East 590 679 33,000 300 Level Gander Center
11:51PM 45.0167 -52.6000 90° East 590 679 33,400 360 Climbing Gander Center
11:52PM 45.0000 -52.4500 99° East 590 679 33,600 360 Climbing Gander Center
11:52PM 45.0167 -52.3500 77° East 590 679 33,800 480 Climbing Gander Center
11:53PM 45.0000 -52.1167 96° East 570 656 34,300 420 Climbing Gander Center
11:54PM 45.0000 -51.9167 90° East 590 679 34,700 300 Climbing Gander Center
11:55PM 45.0000 -51.7333 90° East 580 667 34,900 180 Climbing Moncton Center
11:56PM 45.0000 -51.5333 90° East 590 679 35,000  Climbing Gander Center
11:57PM 44.8667 -51.8000 83° East 659 758 35,000  Level ETMS Enhanced Traffic Management System
11:57PM 45.0000 -51.2167 83° East 590 679 35,000  Level Gander Center
11:58PM 45.0000 -51.0833 90° East 590 679 35,000  Level Gander Center
11:58PM 45.0000 -50.9833 90° East 600 690 35,000  Level Gander Center
11:59PM 45.0000 -50.7500 90° East 600 690 35,000  Level Gander Center
12:00AM 45.0000 -50.5167 90° East 590 679 35,000  Level Gander Center
12:01AM 44.9833 -50.3000 96° East 600 690 35,000  Level Gander Center
12:02AM 44.9833 -50.0667 90° East 600 690 35,000  Level Gander Center
12:03AM 45.0000 -50.0000 78° East 578 665 35,000  Level ETMS Enhanced Traffic Management System
12:03AM 44.9833 -49.8333 78° East 600 690 35,000  Level Gander Center
12:03AM 45.0000 -50.0000 78° East 578 665 35,000  Level ETMS Enhanced Traffic Management System
12:04AM 45.0167 -49.6000 78° East 600 690 35,000  Level Gander Center
12:05AM 45.0500 -49.3667 78° East 600 690 35,000  Level Gander Center
12:06AM 45.0667 -49.2167 81° East 590 679 35,000  Level Gander Center
12:07AM 45.1000 -49.0000 78° East 590 679 35,000  Level Gander Center
12:08AM 45.1167 -48.7667 84° East 600 690 35,000  Level Gander Center
12:08AM 45.1500 -48.6667 65° Northeast 600 690 35,000  Level Gander Center
12:09AM 45.1667 -48.4500 84° East 590 679 35,000  Level Gander Center
12:10AM 45.1833 -48.3000 81° East 590 679 35,000  Level Gander Center
12:11AM 45.2167 -48.0833 78° East 580 667 35,000  Level Gander Center
12:12AM 45.2500 -47.8667 78° East 590 679 35,000  Level Gander Center
12:13AM 45.2667 -47.6667 83° East 580 667 35,000  Level Gander Center
12:15AM 45.3214 -47.3006 78° East  Level FlightAware Approximate
12:22AM 45.5073 -45.9191 81° East  Level FlightAware Approximate
12:23AM 45.5290 -45.7202 81° East  Level FlightAware Approximate
12:24AM 45.5504 -45.5212 81° East  Level FlightAware Approximate
12:25AM 45.5714 -45.3220 81° East  Level FlightAware Approximate
12:26AM 45.5920 -45.1227 82° East  Level FlightAware Approximate
12:27AM 45.6123 -44.9232 82° East  Level FlightAware Approximate
12:28AM 45.6323 -44.7235 82° East  Level FlightAware Approximate
12:29AM 45.6519 -44.5238 82° East  Level FlightAware Approximate
12:30AM 45.6712 -44.3239 82° East  Level FlightAware Approximate
12:31AM 45.6901 -44.1239 82° East  Level FlightAware Approximate
12:32AM 45.7086 -43.9237 82° East  Level FlightAware Approximate
12:33AM 45.7268 -43.7234 83° East  Level FlightAware Approximate
12:34AM 45.7447 -43.5229 83° East  Level FlightAware Approximate
12:35AM 45.7622 -43.3224 83° East  Level FlightAware Approximate
12:36AM 45.7794 -43.1217 83° East  Level FlightAware Approximate
12:37AM 45.7962 -42.9209 83° East  Level FlightAware Approximate
12:38AM 45.8126 -42.7200 83° East  Level FlightAware Approximate
12:39AM 45.8287 -42.5189 83° East  Level FlightAware Approximate
12:40AM 45.8445 -42.3178 84° East  Level FlightAware Approximate
12:41AM 45.8599 -42.1165 84° East  Level FlightAware Approximate
12:42AM 45.8749 -41.9151 84° East  Level FlightAware Approximate
12:43AM 45.8896 -41.7136 84° East  Level FlightAware Approximate
12:44AM 45.9040 -41.5120 84° East  Level FlightAware Approximate
12:45AM 45.9179 -41.3103 84° East  Level FlightAware Approximate
12:46AM 45.9316 -41.1085 84° East  Level FlightAware Approximate
12:47AM 45.9449 -40.9066 85° East  Level FlightAware Approximate
12:48AM 45.9578 -40.7046 85° East  Level FlightAware Approximate
12:48AM 46.0000 -40.0000 78° East 556 640 35,000  Level ETMS Enhanced Traffic Management System
12:49AM 45.9703 -40.5025 85° East  Level FlightAware Approximate
12:50AM 45.9825 -40.3004 85° East  Level FlightAware Approximate
12:51AM 45.9944 -40.0981 85° East  Level FlightAware Approximate
12:52AM 46.0144 -39.8975 79° East  Level FlightAware Approximate
12:53AM 46.0421 -39.6983 79° East  Level FlightAware Approximate
12:54AM 46.2410 -38.2514 79° East 556 640 35,000  Level FlightAware Transoceanic
12:55AM 46.2693 -38.0318 80° East 556 640 35,000  Level FlightAware Transoceanic
12:56AM 46.2971 -37.8120 80° East 556 640 35,000  Level FlightAware Transoceanic
12:57AM 46.3245 -37.5919 80° East 556 640 35,000  Level FlightAware Transoceanic
12:58AM 46.3515 -37.3716 80° East 556 640 35,000  Level FlightAware Transoceanic
12:59AM 46.3780 -37.1511 80° East 556 640 35,000  Level FlightAware Transoceanic
01:00AM 46.4042 -36.9304 80° East 556 640 35,000  Level FlightAware Transoceanic
01:01AM 46.4299 -36.7094 80° East 556 640 35,000  Level FlightAware Transoceanic
01:02AM 46.4552 -36.4883 81° East 556 640 35,000  Level FlightAware Transoceanic
01:03AM 46.4800 -36.2670 81° East 556 640 35,000  Level FlightAware Transoceanic
01:04AM 46.5044 -36.0454 81° East 556 640 35,000  Level FlightAware Transoceanic
01:05AM 46.5284 -35.8237 81° East 556 640 35,000  Level FlightAware Transoceanic
01:06AM 46.5520 -35.6018 81° East 556 640 35,000  Level FlightAware Transoceanic
01:07AM 46.5751 -35.3796 81° East 556 640 35,000  Level FlightAware Transoceanic
01:08AM 46.5979 -35.1573 82° East 556 640 35,000  Level FlightAware Transoceanic
01:09AM 46.6201 -34.9348 82° East 556 640 35,000  Level FlightAware Transoceanic
01:10AM 46.6420 -34.7122 82° East 556 640 35,000  Level FlightAware Transoceanic
01:11AM 46.6634 -34.4893 82° East 556 640 35,000  Level FlightAware Transoceanic
01:12AM 46.6844 -34.2663 82° East 556 640 35,000  Level FlightAware Transoceanic
01:13AM 46.7049 -34.0431 82° East 556 640 35,000  Level FlightAware Transoceanic
01:14AM 46.7251 -33.8197 83° East 556 640 35,000  Level FlightAware Transoceanic
01:15AM 46.7447 -33.5962 83° East 556 640 35,000  Level FlightAware Transoceanic
01:16AM 46.7640 -33.3725 83° East 556 640 35,000  Level FlightAware Transoceanic
01:17AM 46.7828 -33.1486 83° East 556 640 35,000  Level FlightAware Transoceanic
01:18AM 46.8012 -32.9246 83° East 556 640 35,000  Level FlightAware Transoceanic
01:19AM 46.8191 -32.7004 83° East 556 640 35,000  Level FlightAware Transoceanic
01:20AM 46.8366 -32.4761 84° East 556 640 35,000  Level FlightAware Transoceanic
01:21AM 46.8536 -32.2517 84° East 556 640 35,000  Level FlightAware Transoceanic
01:22AM 46.8703 -32.0271 84° East 556 640 35,000  Level FlightAware Transoceanic
01:23AM 46.8864 -31.8024 84° East 556 640 35,000  Level FlightAware Transoceanic
01:24AM 46.9022 -31.5775 84° East 556 640 35,000  Level FlightAware Transoceanic
01:25AM 46.9175 -31.3525 84° East 556 640 35,000  Level FlightAware Transoceanic
01:26AM 46.9323 -31.1274 85° East 556 640 35,000  Level FlightAware Transoceanic
01:27AM 46.9468 -30.9021 85° East 556 640 35,000  Level FlightAware Transoceanic
01:28AM 46.9607 -30.6768 85° East 556 640 35,000  Level FlightAware Transoceanic
01:29AM 46.9743 -30.4513 85° East 556 640 35,000  Level FlightAware Transoceanic
01:30AM 46.9874 -30.2257 85° East 556 640 35,000  Level FlightAware Transoceanic
01:31AM 46.9989 -30.0196 85° East  Level FlightAware Approximate
01:32AM 47.0101 -29.8135 85° East  Level FlightAware Approximate
01:33AM 47.0395 -29.8429 70° East  Level FlightAware Approximate
01:33AM 47.0000 -30.0000 70° East 502 578 35,000  Level ETMS Enhanced Traffic Management System
01:34AM 47.0881 -29.6485 70° East  Level FlightAware Approximate
01:35AM 47.1363 -29.4538 70° East  Level FlightAware Approximate
01:36AM 47.1847 -29.2566 70° East  Level FlightAware Approximate
01:37AM 47.2328 -29.0590 70° East  Level FlightAware Approximate
01:38AM 47.2805 -28.8611 70° East  Level FlightAware Approximate
01:39AM 47.3774 -28.4538 71° East 502 578 35,000  Level FlightAware Transoceanic
01:40AM 47.4231 -28.2590 71° East 502 578 35,000  Level FlightAware Transoceanic
01:41AM 47.4684 -28.0639 71° East 502 578 35,000  Level FlightAware Transoceanic
01:42AM 47.5135 -27.8684 71° East 502 578 35,000  Level FlightAware Transoceanic
01:43AM 47.5582 -27.6726 71° East 502 578 35,000  Level FlightAware Transoceanic
01:44AM 47.6025 -27.4764 72° East 502 578 35,000  Level FlightAware Transoceanic
01:45AM 47.6466 -27.2799 72° East 502 578 35,000  Level FlightAware Transoceanic
01:46AM 47.6903 -27.0831 72° East 502 578 35,000  Level FlightAware Transoceanic
01:47AM 47.7336 -26.8860 72° East 502 578 35,000  Level FlightAware Transoceanic
01:48AM 47.7767 -26.6885 72° East 502 578 35,000  Level FlightAware Transoceanic
01:49AM 47.8194 -26.4907 72° East 502 578 35,000  Level FlightAware Transoceanic
01:50AM 47.8617 -26.2926 72° East 502 578 35,000  Level FlightAware Transoceanic
01:51AM 47.9037 -26.0942 73° East 502 578 35,000  Level FlightAware Transoceanic
01:52AM 47.9454 -25.8954 73° East 502 578 35,000  Level FlightAware Transoceanic
01:53AM 47.9867 -25.6963 73° East 502 578 35,000  Level FlightAware Transoceanic
01:54AM 48.0276 -25.4969 73° East 502 578 35,000  Level FlightAware Transoceanic
01:55AM 48.0683 -25.2972 73° East 502 578 35,000  Level FlightAware Transoceanic
01:56AM 48.1086 -25.0972 73° East 502 578 35,000  Level FlightAware Transoceanic
01:57AM 48.1485 -24.8968 73° East 502 578 35,000  Level FlightAware Transoceanic
01:58AM 48.1881 -24.6962 74° East 502 578 35,000  Level FlightAware Transoceanic
01:59AM 48.2273 -24.4952 74° East 502 578 35,000  Level FlightAware Transoceanic
02:00AM 48.2662 -24.2939 74° East 502 578 35,000  Level FlightAware Transoceanic
02:01AM 48.3047 -24.0924 74° East 502 578 35,000  Level FlightAware Transoceanic
02:02AM 48.3429 -23.8905 74° East 502 578 35,000  Level FlightAware Transoceanic
02:03AM 48.3807 -23.6883 74° East 502 578 35,000  Level FlightAware Transoceanic
02:04AM 48.4182 -23.4858 75° East 502 578 35,000  Level FlightAware Transoceanic
02:05AM 48.4553 -23.2831 75° East 502 578 35,000  Level FlightAware Transoceanic
02:06AM 48.4921 -23.0800 75° East 502 578 35,000  Level FlightAware Transoceanic
02:07AM 48.5285 -22.8766 75° East 502 578 35,000  Level FlightAware Transoceanic
02:08AM 48.5645 -22.6730 75° East 502 578 35,000  Level FlightAware Transoceanic
02:09AM 48.6002 -22.4690 75° East 502 578 35,000  Level FlightAware Transoceanic
02:10AM 48.6355 -22.2648 75° East 502 578 35,000  Level FlightAware Transoceanic
02:11AM 48.6705 -22.0603 76° East 502 578 35,000  Level FlightAware Transoceanic
02:12AM 48.7051 -21.8555 76° East 502 578 35,000  Level FlightAware Transoceanic
02:13AM 48.7393 -21.6504 76° East 502 578 35,000  Level FlightAware Transoceanic
02:14AM 48.7732 -21.4451 76° East 502 578 35,000  Level FlightAware Transoceanic
02:15AM 48.8067 -21.2394 76° East 502 578 35,000  Level FlightAware Transoceanic
02:16AM 48.8398 -21.0335 76° East 502 578 35,000  Level FlightAware Transoceanic
02:17AM 48.8726 -20.8274 76° East 502 578 35,000  Level FlightAware Transoceanic
02:18AM 48.9050 -20.6209 77° East 502 578 35,000  Level FlightAware Transoceanic
02:19AM 48.9370 -20.4142 77° East 502 578 35,000  Level FlightAware Transoceanic
02:20AM 48.9687 -20.2072 77° East 502 578 35,000  Level FlightAware Transoceanic
02:21AM 49.0007 -19.9956 77° East  Level FlightAware Approximate
02:22AM 49.0012 -19.9911 78° East  Level FlightAware Approximate
02:23AM 49.0300 -19.7782 78° East  Level FlightAware Approximate
02:24AM 49.0584 -19.5651 78° East  Level FlightAware Approximate
02:25AM 49.0864 -19.3518 79° East  Level FlightAware Approximate
02:26AM 49.1141 -19.1382 79° East  Level FlightAware Approximate
02:27AM 49.1413 -18.9244 79° East  Level FlightAware Approximate
02:28AM 49.1682 -18.7103 79° East  Level FlightAware Approximate
02:29AM 49.1946 -18.4960 79° East  Level FlightAware Approximate
02:30AM 49.2206 -18.2815 79° East  Level FlightAware Approximate
02:31AM 49.2463 -18.0668 80° East  Level FlightAware Approximate
02:32AM 49.2715 -17.8518 80° East  Level FlightAware Approximate
02:33AM 49.2964 -17.6366 80° East  Level FlightAware Approximate
02:34AM 49.3207 -17.4226 80° East  Level FlightAware Approximate
02:35AM 49.3446 -17.2084 80° East  Level FlightAware Approximate
02:36AM 49.3681 -16.9940 80° East  Level FlightAware Approximate
02:37AM 49.3912 -16.7794 81° East  Level FlightAware Approximate
02:38AM 49.4139 -16.5646 81° East  Level FlightAware Approximate
02:39AM 49.4362 -16.3496 81° East  Level FlightAware Approximate
02:40AM 49.4581 -16.1344 81° East  Level FlightAware Approximate
02:41AM 49.4796 -15.9190 81° East  Level FlightAware Approximate
02:42AM 49.5007 -15.7034 81° East  Level FlightAware Approximate
02:43AM 49.5214 -15.4876 82° East  Level FlightAware Approximate
02:44AM 49.5417 -15.2717 82° East  Level FlightAware Approximate
02:45AM 49.5616 -15.0556 82° East  Level FlightAware Approximate
02:46AM 49.5815 -14.8393 82° East  Level FlightAware Approximate
02:47AM 49.6010 -14.6230 82° East  Level FlightAware Approximate
02:48AM 49.6202 -14.4064 82° East  Level FlightAware Approximate
02:49AM 49.6389 -14.1897 82° East  Level FlightAware Approximate
02:50AM 49.6573 -13.9728 82° East  Level FlightAware Approximate
02:51AM 49.6752 -13.7558 83° East  Level FlightAware Approximate
02:52AM 49.6928 -13.5386 83° East  Level FlightAware Approximate
02:53AM 49.7099 -13.3212 83° East  Level FlightAware Approximate
02:54AM 49.7266 -13.1037 83° East  Level FlightAware Approximate
02:55AM 49.7429 -12.8860 83° East  Level FlightAware Approximate
02:56AM 49.7588 -12.6682 83° East  Level FlightAware Approximate
02:57AM 49.7743 -12.4503 84° East  Level FlightAware Approximate
02:58AM 49.7894 -12.2322 84° East  Level FlightAware Approximate
02:59AM 49.8041 -12.0140 84° East  Level FlightAware Approximate
03:00AM 49.8184 -11.7957 84° East  Level FlightAware Approximate
03:01AM 49.8322 -11.5772 84° East  Level FlightAware Approximate
03:02AM 49.8457 -11.3586 84° East  Level FlightAware Approximate
03:03AM 49.8587 -11.1399 85° East  Level FlightAware Approximate
03:04AM 49.8714 -10.9211 85° East  Level FlightAware Approximate
03:05AM 49.8836 -10.7021 85° East  Level FlightAware Approximate
03:06AM 49.8954 -10.4831 85° East  Level FlightAware Approximate
03:07AM 49.9068 -10.2639 85° East  Level FlightAware Approximate
03:08AM 49.9177 -10.0447 85° East  Level FlightAware Approximate
03:09AM 49.9283 -9.8253 86° East  Level FlightAware Approximate
03:10AM 49.9384 -9.6059 86° East  Level FlightAware Approximate
03:11AM 49.9482 -9.3863 86° East  Level FlightAware Approximate
03:12AM 49.9575 -9.1667 86° East  Level FlightAware Approximate
03:13AM 49.9664 -8.9470 86° East  Level FlightAware Approximate
03:14AM 49.9749 -8.7272 86° East  Level FlightAware Approximate
03:15AM 49.9830 -8.5073 87° East  Level FlightAware Approximate
03:16AM 49.9906 -8.2874 87° East  Level FlightAware Approximate
03:16AM 49.7520 -9.7730 87° East 462 532 35,000  Level FlightAware
03:17AM 49.9979 -8.0674 87° East  Level FlightAware Approximate
03:17AM 49.7760 -9.6140 77° East 462 532 35,000  Level FlightAware
03:17AM 49.7970 -9.4660 78° East 462 532 35,000  Level FlightAware
03:18AM 49.8180 -9.3220 77° East 463 533 35,000  Level FlightAware
03:19AM 49.8360 -9.1960 77° East 464 534 35,000  Level FlightAware
03:19AM 49.8570 -9.0470 78° East 464 534 35,000 -1,620 Level FlightAware
03:20AM 49.8643 -8.9925 78° East 438 504 33,400 -2,760 Descending FlightAware UK
03:20AM 49.8727 -8.9341 77° East 440 506 33,500 3,840 Climbing FlightAware UK
03:20AM 49.8750 -8.9200 77° East 467 537 35,000  Climbing FlightAware
03:20AM 49.8836 -8.8558 77° East 444 511 33,500 -2,580 Descending FlightAware UK
03:21AM 49.8919 -8.7970 78° East 444 511 33,500 3,900 Level FlightAware UK
03:21AM 49.8940 -8.7860 78° East 469 540 35,000 -300 Climbing FlightAware
03:21AM 49.9030 -8.7183 78° East 446 513 33,400 -2,640 Descending FlightAware UK
03:21AM 49.9112 -8.6592 78° East 446 513 33,400 3,660 Level FlightAware UK
03:21AM 49.9140 -8.6380 78° East 470 541 35,000  Climbing FlightAware
03:22AM 49.9220 -8.5801 78° East 446 513 33,400 -2,700 Descending FlightAware UK
03:22AM 49.9301 -8.5207 78° East 450 518 33,500 3,960 Climbing FlightAware UK
03:22AM 49.9320 -8.5100 78° East 470 541 35,000  Climbing FlightAware
03:22AM 49.9408 -8.4414 78° East 450 518 33,500 -2,520 Descending FlightAware UK
03:23AM 49.9487 -8.3818 78° East 448 516 33,500 3,300 Level FlightAware UK
03:23AM 49.9530 -8.3570 78° East 469 540 35,000  Climbing FlightAware
03:23AM 49.9605 -8.3030 78° East 448 516 33,500 -2,760 Descending FlightAware UK
03:23AM 49.9703 -8.2444 75° East 448 516 33,500 3,600 Level FlightAware UK
03:24AM 49.9750 -8.2280 75° East 469 540 35,000  Climbing FlightAware
03:24AM 49.9844 -8.1666 75° East 448 516 33,500 -2,580 Descending FlightAware UK
03:24AM 49.9946 -8.1082 75° East 448 516 33,500 3,180 Level FlightAware UK
03:24AM 49.9990 -8.0830 75° East 470 541 35,000  Climbing FlightAware
03:25AM 50.0110 -8.0098 75° East 446 513 33,500 -2,400 Descending FlightAware UK
03:25AM 50.0207 -7.9506 76° East 446 513 33,500 4,500 Level FlightAware UK
03:25AM 50.0200 -7.9540 76° East 471 542 35,000  Climbing FlightAware
03:25AM 50.0302 -7.8913 76° East 446 513 33,500 -2,700 Descending FlightAware UK
03:26AM 50.0396 -7.8321 76° East 448 516 33,500 3,720 Level FlightAware UK
03:26AM 50.0410 -7.8240 76° East 471 542 35,000  Climbing FlightAware
03:26AM 50.0518 -7.7532 76° East 448 516 33,500 -2,520 Descending FlightAware UK
03:26AM 50.0611 -7.6941 76° East 448 516 33,500 3,300 Level FlightAware UK
03:26AM 50.0650 -7.6710 76° East 471 542 35,000  Climbing FlightAware
03:27AM 50.0735 -7.6154 76° East 448 516 33,500 -2,760 Descending FlightAware UK
03:27AM 50.0826 -7.5562 77° East 448 516 33,500 3,600 Level FlightAware UK
03:27AM 50.0850 -7.5400 77° East 472 543 35,000  Climbing FlightAware
03:27AM 50.0948 -7.4772 77° East 446 513 33,500 -2,580 Descending FlightAware UK
03:28AM 50.1039 -7.4179 76° East 446 513 33,500 3,180 Level FlightAware UK
03:28AM 50.1080 -7.3950 76° East 472 543 35,000  Climbing FlightAware
03:28AM 50.1191 -7.3189 76° East 448 516 33,500 -2,400 Descending FlightAware UK
03:28AM 50.1282 -7.2595 76° East 446 513 33,500 4,500 Level FlightAware UK
03:28AM 50.1280 -7.2610 76° East 472 543 35,000  Climbing FlightAware
03:29AM 50.1373 -7.2000 76° East 446 513 33,500 -2,700 Descending FlightAware UK
03:29AM 50.1465 -7.1404 76° East 448 516 33,500 3,060 Level FlightAware UK
03:29AM 50.1510 -7.1090 76° East 473 544 35,000  Climbing FlightAware
03:30AM 50.1615 -7.0410 76° East 448 516 33,500 -2,460 Descending FlightAware UK
03:30AM 50.1706 -6.9806 77° East 446 513 33,500 4,260 Level FlightAware UK
03:30AM 50.1710 -6.9770 77° East 473 544 35,000  Climbing FlightAware
03:30AM 50.1796 -6.9209 77° East 446 513 33,500 -2,760 Descending FlightAware UK
03:30AM 50.1887 -6.8612 77° East 448 516 33,500 3,600 Level FlightAware UK
03:31AM 50.1910 -6.8450 77° East 474 545 35,000  Climbing FlightAware
03:31AM 50.2005 -6.7814 77° East 446 513 33,500 -2,580 Descending FlightAware UK
03:31AM 50.2093 -6.7216 77° East 448 516 33,500 3,180 Level FlightAware UK
03:31AM 50.2130 -6.6970 77° East 473 544 35,000  Climbing FlightAware
03:32AM 50.2242 -6.6221 77° East 444 511 33,500 -2,400 Descending FlightAware UK
03:32AM 50.2332 -6.5624 77° East 442 509 33,500 4,500 Level FlightAware UK
03:32AM 50.2330 -6.5630 77° East 474 545 35,000  Climbing FlightAware
03:32AM 50.2421 -6.5027 77° East 444 511 33,500 -2,700 Descending FlightAware UK
03:33AM 50.2508 -6.4428 77° East 446 513 33,500 3,060 Level FlightAware UK
03:33AM 50.2550 -6.4110 77° East 476 548 35,000  Climbing FlightAware
03:33AM 50.2652 -6.3425 77° East 448 516 33,500 -2,460 Descending FlightAware UK
03:33AM 50.2739 -6.2821 77° East 448 516 33,500 4,260 Level FlightAware UK
03:33AM 50.2740 -6.2780 77° East 477 549 35,000  Climbing FlightAware
03:34AM 50.2827 -6.2217 77° East 448 516 33,500 -2,760 Descending FlightAware UK
03:34AM 50.2913 -6.1612 77° East 446 513 33,500 3,600 Level FlightAware UK
03:34AM 50.2940 -6.1430 77° East 478 550 35,000  Climbing FlightAware
03:34AM 50.3030 -6.0805 77° East 446 513 33,500 -2,580 Descending FlightAware UK
03:35AM 50.3116 -6.0199 77° East 446 513 33,500 3,180 Level FlightAware UK
03:35AM 50.3150 -5.9930 77° East 479 551 35,000  Climbing FlightAware
03:35AM 50.3257 -5.9184 77° East 444 511 33,500 -2,400 Descending FlightAware UK
03:35AM 50.3345 -5.8569 77° East 446 513 33,500 4,500 Level FlightAware UK
03:35AM 50.3330 -5.8630 77° East 481 554 35,000  Climbing FlightAware
03:36AM 50.3431 -5.7958 77° East 452 520 33,500 -2,700 Descending FlightAware UK
03:36AM 50.3515 -5.7344 78° East 454 522 33,500 3,060 Level FlightAware UK
03:36AM 50.3550 -5.7090 78° East 488 562 35,000  Climbing FlightAware
03:37AM 50.3660 -5.6302 78° East 462 532 33,500 -2,460 Descending FlightAware UK
03:37AM 50.3747 -5.5676 78° East 460 529 33,500 4,260 Level FlightAware UK
03:37AM 50.3740 -5.5710 78° East 491 565 35,000  Climbing FlightAware
03:37AM 50.3833 -5.5051 78° East 462 532 33,500 -2,760 Descending FlightAware UK
03:37AM 50.3919 -5.4418 78° East 462 532 33,500 3,000 Level FlightAware UK
03:38AM 50.3950 -5.4120 78° East 493 567 35,000  Climbing FlightAware
03:38AM 50.4059 -5.3372 78° East 464 534 33,500 -2,520 Descending FlightAware UK
03:38AM 50.4144 -5.2743 78° East 466 536 33,500 4,080 Level FlightAware UK
03:38AM 50.4140 -5.2750 78° East 492 566 35,000  Climbing FlightAware
03:39AM 50.4257 -5.1906 78° East 462 532 33,500  Descending FlightAware UK
03:39AM 50.4330 -5.1340 78° East 492 566 35,000  Climbing FlightAware
03:39AM 50.4425 -5.0653 78° East 462 532 33,500 -2,700 Descending FlightAware UK
03:40AM 50.4509 -5.0026 78° East 462 532 33,500 3,060 Level FlightAware UK
03:40AM 50.4540 -4.9750 78° East 493 567 35,000  Climbing FlightAware
03:40AM 50.4645 -4.8972 78° East 462 532 33,500 -2,400 Descending FlightAware UK
03:40AM 50.4728 -4.8344 78° East 460 529 33,500 4,500 Level FlightAware UK
03:40AM 50.4720 -4.8390 78° East 491 565 35,000  Climbing FlightAware
03:41AM 50.4809 -4.7716 78° East 462 532 33,500  Descending FlightAware UK
03:41AM 50.4900 -4.6980 78° East 492 566 35,000  Climbing FlightAware
03:41AM 50.4999 -4.6249 78° East 464 534 33,500  Descending FlightAware UK
03:42AM 50.5100 -4.5420 78° East 491 565 35,000  Climbing FlightAware
03:42AM 50.5188 -4.4783 78° East 462 532 33,500 -2,760 Descending FlightAware UK
03:42AM 50.5266 -4.4155 79° East 462 532 33,500 3,600 Level FlightAware UK
03:42AM 50.5280 -4.4000 79° East 491 565 35,000  Climbing FlightAware
03:43AM 50.5397 -4.3107 79° East 462 532 33,500  Descending FlightAware UK
03:43AM 50.5480 -4.2410 79° East 492 566 35,000  Climbing FlightAware
03:44AM 50.5581 -4.1631 79° East 464 534 33,500 -2,400 Descending FlightAware UK
03:44AM 50.5660 -4.1001 79° East 464 534 33,500 4,500 Level FlightAware UK
03:44AM 50.5660 -4.1000 79° East 492 566 35,000  Climbing FlightAware
03:44AM 50.5765 -4.0161 79° East 460 529 33,500  Descending FlightAware UK
03:45AM 50.5835 -3.9548 79° East 493 567 35,000  Climbing FlightAware ADS-B
03:45AM 50.5917 -3.8897 79° East 462 532 33,500  Descending FlightAware UK
03:45AM 50.5966 -3.8466 79° East 493 567 35,000  Climbing FlightAware ADS-B
03:45AM 50.6044 -3.7844 79° East 464 534 33,500  Descending FlightAware UK
03:46AM 50.6096 -3.7399 79° East 492 566 35,000 1,440 Climbing FlightAware ADS-B
03:46AM 50.6230 -3.6273 79° East 496 571 34,600 -2,640 Descending FlightAware ADS-B
03:46AM 50.6321 -3.5522 79° East 474 545 32,700 -960 Descending FlightAware UK
03:47AM 50.6393 -3.4942 79° East 497 572 34,000 -1,020 Climbing FlightAware ADS-B
03:47AM 50.6505 -3.4250 79° East 464 534 32,100 -1,020 Descending FlightAware UK
03:47AM 50.6561 -3.3875 79° East 492 566 33,500 -840 Climbing FlightAware ADS-B
03:48AM 50.6701 -3.3001 79° East 462 532 31,600 -900 Descending FlightAware UK
03:48AM 50.6752 -3.2677 79° East 492 566 33,000 -1,020 Climbing FlightAware ADS-B
03:48AM 50.6864 -3.1960 79° East 466 536 31,100 -1,020 Descending FlightAware UK
03:48AM 50.6944 -3.1420 79° East 493 567 32,400 -1,020 Climbing FlightAware ADS-B
03:49AM 50.7053 -3.0699 79° East 466 536 30,500 -1,440 Descending FlightAware UK
03:49AM 50.7104 -3.0364 79° East 489 563 31,700 120 Climbing FlightAware ADS-B
03:49AM 50.7265 -2.9313 76° East 482 555 30,600 -4,080 Descending FlightAware ADS-B
03:50AM 50.7366 -2.8652 76° East 450 518 28,300 -2,160 Descending FlightAware UK
03:50AM 50.7429 -2.8267 76° East 470 541 29,500 -2,220 Climbing FlightAware ADS-B
03:50AM 50.7558 -2.7461 76° East 436 502 27,000 -2,520 Descending FlightAware UK
03:50AM 50.7593 -2.7248 76° East 462 532 28,200 -2,280 Climbing FlightAware ADS-B
03:51AM 50.7682 -2.6688 76° East 430 495 26,100 -2,160 Descending FlightAware UK
03:51AM 50.7740 -2.6261 76° East 453 521 27,100 -540 Climbing FlightAware ADS-B
03:52AM 50.7830 -2.5136 83° East 452 520 25,700 -2,160 Descending FlightAware ADS-B
03:52AM 50.7906 -2.4145 83° East 436 502 24,800 -1,680 Descending FlightAware ADS-B
03:52AM 50.7899 -2.3794 92° East 434 499 24,500 -4,440 Descending FlightAware ADS-B
03:53AM 50.7857 -2.3215 92° East 400 460 22,600 -1,500 Descending FlightAware UK
03:53AM 50.7816 -2.2623 92° East 432 497 23,600 360 Climbing FlightAware ADS-B
03:53AM 50.7755 -2.1666 96° East 430 495 22,900 -3,480 Descending FlightAware ADS-B
03:54AM 50.7723 -2.1149 96° East 394 453 20,900 -1,800 Descending FlightAware UK
03:54AM 50.7701 -2.0710 96° East 432 497 22,000 240 Climbing FlightAware ADS-B
03:54AM 50.7649 -1.9762 95° East 428 493 21,100 -1,680 Descending FlightAware ADS-B
03:55AM 50.7598 -1.8836 95° East 422 486 20,300 -3,900 Descending FlightAware ADS-B
03:55AM 50.7573 -1.8359 95° East 382 440 18,200 -2,040 Descending FlightAware UK
03:55AM 50.7546 -1.7903 95° East 419 482 19,300 -1,860 Climbing FlightAware ADS-B
03:56AM 50.7509 -1.7273 95° East 378 435 17,100 -1,980 Descending FlightAware UK
03:56AM 50.7490 -1.6986 95° East 412 474 18,300 1,260 Climbing FlightAware ADS-B
03:56AM 50.7432 -1.6068 96° East 405 466 18,000 -480 Descending FlightAware ADS-B
03:57AM 50.7426 -1.5794 92° East 405 466 18,000  Level FlightAware ADS-B
03:57AM 50.7451 -1.5463 83° East 405 466 18,000 -3,240 Level FlightAware ADS-B
03:57AM 50.7524 -1.4973 83° East 368 423 16,500  Descending FlightAware UK
03:57AM 50.7580 -1.4577 83° East 409 471 18,000  Climbing FlightAware ADS-B
03:58AM 50.7650 -1.4105 83° East 370 426 16,500 -600 Descending FlightAware UK
03:58AM 50.7710 -1.3667 83° East 405 466 17,700 1,020 Climbing FlightAware ADS-B
03:58AM 50.7789 -1.3156 76° East 401 461 17,100 -1,980 Descending FlightAware ADS-B
03:58AM 50.7867 -1.2867 67° East 399 459 16,800 -2,160 Descending FlightAware ADS-B
03:58AM 50.7905 -1.2761 60° Northeast 398 458 16,600 -2,040 Descending FlightAware ADS-B
03:58AM 50.7982 -1.2585 55° Northeast 395 455 16,400 -1,920 Descending FlightAware ADS-B
03:59AM 50.8075 -1.2418 49° Northeast 392 451 16,100 -5,400 Descending FlightAware ADS-B
03:59AM 50.8343 -1.2004 49° Northeast 358 412 13,900 -1,980 Descending FlightAware UK
03:59AM 50.8479 -1.1792 49° Northeast 387 445 15,100 -1,800 Climbing FlightAware ADS-B
03:59AM 50.8725 -1.1410 49° Northeast 356 410 13,000 -1,800 Descending FlightAware UK
04:00AM 50.8862 -1.1196 49° Northeast 379 436 14,200 -1,800 Climbing FlightAware ADS-B
04:00AM 50.9097 -1.0826 49° Northeast 348 400 12,100 -1,620 Descending FlightAware UK
04:00AM 50.9232 -1.0614 49° Northeast 371 427 13,400 780 Climbing FlightAware ADS-B
04:01AM 50.9611 -1.0025 44° Northeast 369 425 12,700 -3,300 Descending FlightAware ADS-B
04:01AM 50.9828 -0.9687 44° Northeast 330 380 10,800 -1,020 Descending FlightAware UK
04:01AM 50.9965 -0.9470 44° Northeast 353 406 12,200 -1,020 Climbing FlightAware ADS-B
04:01AM 51.0174 -0.9140 44° Northeast 318 366 10,300 -1,020 Descending FlightAware UK
04:02AM 51.0316 -0.8919 44° Northeast 343 395 11,700 1,200 Climbing FlightAware ADS-B
04:02AM 51.0653 -0.8387 45° Northeast 341 392 11,200 -3,000 Descending FlightAware ADS-B
04:02AM 51.0843 -0.8085 45° Northeast 308 354 9,400 -420 Descending FlightAware UK
04:03AM 51.0981 -0.7853 45° Northeast 322 371 11,000 1,440 Climbing FlightAware ADS-B
04:03AM 51.1292 -0.7344 46° Northeast 313 360 10,500 -2,760 Descending FlightAware ADS-B
04:04AM 51.1514 -0.6984 46° Northeast 282 325 8,600 -780 Descending FlightAware UK
04:04AM 51.1599 -0.6844 46° Northeast 301 346 10,100 3,240 Climbing FlightAware ADS-B
04:04AM 51.1744 -0.6607 46° Northeast 292 336 9,900 -660 Descending FlightAware ADS-B
04:04AM 51.1877 -0.6390 46° Northeast 284 327 9,800 -600 Descending FlightAware ADS-B
04:04AM 51.2019 -0.6160 45° Northeast 278 320 9,600 -960 Descending FlightAware ADS-B
04:05AM 51.2168 -0.5919 45° Northeast 275 316 9,300 -1,320 Descending FlightAware ADS-B
04:05AM 51.2309 -0.5688 46° Northeast 274 315 8,900 -1,200 Descending FlightAware ADS-B
04:05AM 51.2445 -0.5466 46° Northeast 270 311 8,700 -600 Descending FlightAware ADS-B
04:06AM 51.2579 -0.5243 46° Northeast 268 308 8,600 -600 Descending FlightAware ADS-B
04:06AM 51.2711 -0.5026 46° Northeast 269 310 8,400 -600 Descending FlightAware ADS-B
04:06AM 51.2845 -0.4808 46° Northeast 269 310 8,300 -600 Descending FlightAware ADS-B
04:06AM 51.2975 -0.4594 46° Northeast 267 307 8,100 -900 Descending FlightAware ADS-B
04:06AM 51.3020 -0.4533 40° Northeast 264 304 8,000 -780 Descending FlightAware ADS-B
04:06AM 51.3057 -0.4497 32° Northeast 262 302 8,000  Level FlightAware ADS-B
04:07AM 51.3112 -0.4459 23° Northeast 259 298 8,000  Level FlightAware ADS-B
04:07AM 51.3162 -0.4438 14° North 256 295 8,000  Level FlightAware ADS-B
04:07AM 51.3232 -0.4428 North 254 292 8,000  Level FlightAware ADS-B
04:07AM 51.3430 -0.4420 North 256 295 8,000  Level FlightAware ADS-B
04:07AM 51.3607 -0.4411 North 255 293 8,000  Level FlightAware ADS-B
04:07AM 51.3788 -0.4400 North 253 291 8,000  Level FlightAware ADS-B
04:08AM 51.3875 -0.4392 North 253 291 8,000  Level FlightAware ADS-B
04:08AM 51.3937 -0.4372 11° North 254 292 8,000  Level FlightAware ADS-B
04:08AM 51.3976 -0.4349 20° North 256 295 8,000  Level FlightAware ADS-B
04:08AM 51.4009 -0.4323 26° Northeast 256 295 8,000  Level FlightAware ADS-B
04:08AM 51.4044 -0.4285 33° Northeast 256 295 8,000  Level FlightAware ADS-B
04:08AM 51.4092 -0.4216 42° Northeast 257 296 8,000  Level FlightAware ADS-B
04:08AM 51.4125 -0.4150 52° Northeast 258 297 8,000  Level FlightAware ADS-B
04:08AM 51.4149 -0.4084 60° Northeast 260 299 8,000  Level FlightAware ADS-B
04:08AM 51.4165 -0.4022 68° East 260 299 8,000  Level FlightAware ADS-B
04:08AM 51.4179 -0.3941 74° East 260 299 8,000  Level FlightAware ADS-B
04:08AM 51.4184 -0.3882 82° East 260 299 8,000  Level FlightAware ADS-B
04:08AM 51.4183 -0.3751 91° East 258 297 8,000  Level FlightAware ADS-B
04:08AM 51.4167 -0.3648 104° East 255 293 8,000  Level FlightAware ADS-B
04:09AM 51.4144 -0.3561 113° Southeast 253 291 8,000  Level FlightAware ADS-B
04:09AM 51.4109 -0.3458 119° Southeast 252 290 8,000 -420 Level FlightAware ADS-B
04:09AM 51.4057 -0.3306 119° Southeast 252 290 7,900 -960 Descending FlightAware ADS-B
04:09AM 51.3966 -0.3036 118° Southeast 251 289 7,600 -840 Descending FlightAware ADS-B
04:09AM 51.3939 -0.2946 116° Southeast 251 289 7,600 -720 Level FlightAware ADS-B
04:09AM 51.3926 -0.2891 111° Southeast 252 290 7,500 -1,140 Descending FlightAware ADS-B
04:09AM 51.3910 -0.2734 99° East 256 295 7,400 -960 Descending FlightAware ADS-B
04:09AM 51.3911 -0.2641 89° East 257 296 7,300 -1,140 Descending FlightAware ADS-B
04:10AM 51.3915 -0.2424 88° East 257 296 7,100 -1,140 Descending FlightAware ADS-B
04:10AM 51.3919 -0.2127 89° East 257 296 6,800 -1,140 Descending FlightAware ADS-B
04:10AM 51.3923 -0.1826 89° East 256 295 6,500 -1,200 Descending FlightAware ADS-B
04:10AM 51.3926 -0.1536 89° East 255 293 6,200 -1,140 Descending FlightAware ADS-B
04:11AM 51.3932 -0.1206 88° East 255 293 5,900 -900 Descending FlightAware ADS-B
04:11AM 51.3937 -0.0912 88° East 253 291 5,700 -720 Descending FlightAware ADS-B
04:11AM 51.3955 -0.0743 80° East 252 290 5,600 -960 Descending FlightAware ADS-B
04:11AM 51.3972 -0.0674 69° East 253 291 5,500 -780 Descending FlightAware ADS-B
04:11AM 51.3995 -0.0609 60° Northeast 252 290 5,500 -780 Level FlightAware ADS-B
04:11AM 51.4021 -0.0552 54° Northeast 252 290 5,400 -600 Descending FlightAware ADS-B
04:11AM 51.4081 -0.0467 42° Northeast 248 285 5,400  Level FlightAware ADS-B
04:12AM 51.4117 -0.0431 32° Northeast 244 281 5,400  Level FlightAware ADS-B
04:12AM 51.4157 -0.0403 24° Northeast 239 275 5,400 -600 Level FlightAware ADS-B
04:12AM 51.4231 -0.0375 13° North 231 266 5,300 -1,020 Descending FlightAware ADS-B
04:12AM 51.4276 -0.0369 North 227 261 5,200 -540 Descending FlightAware ADS-B
04:12AM 51.4350 -0.0364 North 220 253 5,200  Level FlightAware ADS-B
04:12AM 51.4385 -0.0365 359° North 217 250 5,200 -900 Level FlightAware ADS-B
04:12AM 51.4415 -0.0370 354° North 215 247 5,100 -840 Descending FlightAware ADS-B
04:12AM 51.4521 -0.0446 336° Northwest 196 226 5,000 -420 Descending FlightAware ADS-B
04:12AM 51.4543 -0.0480 316° Northwest 188 216 5,000  Level FlightAware ADS-B
04:12AM 51.4562 -0.0516 310° West 185 213 5,000  Level FlightAware ADS-B
04:12AM 51.4584 -0.0565 306° West 182 209 5,000 -300 Level FlightAware ADS-B
04:13AM 51.4660 -0.0739 305° West 182 209 4,900 -600 Descending FlightAware ADS-B
04:13AM 51.4734 -0.0910 305° West 183 211 4,700 -960 Descending FlightAware ADS-B
04:13AM 51.4750 -0.0956 299° West 180 207 4,600 -780 Descending FlightAware ADS-B
04:13AM 51.4762 -0.1001 293° West 177 204 4,600  Level FlightAware ADS-B
04:13AM 51.4771 -0.1044 289° West 174 200 4,600 -480 Level FlightAware ADS-B
04:13AM 51.4782 -0.1160 279° West 168 193 4,500 -780 Descending FlightAware ADS-B
04:13AM 51.4780 -0.1233 267° West 167 192 4,400 -720 Descending FlightAware ADS-B
04:14AM 51.4777 -0.1378 268° West 169 194 4,300 -720 Descending FlightAware ADS-B
04:14AM 51.4782 -0.1573 272° West 170 196 4,100 -780 Descending FlightAware ADS-B
04:14AM 51.4781 -0.1772 270° West 169 194 3,900 -780 Descending FlightAware ADS-B
04:14AM 51.4781 -0.1959 270° West 167 192 3,700 -900 Descending FlightAware ADS-B
04:15AM 51.4781 -0.2171 270° West 167 192 3,400 -900 Descending FlightAware ADS-B
04:15AM 51.4781 -0.2417 270° West 167 192 3,100 -780 Descending FlightAware ADS-B
04:16AM 51.4780 -0.2730 270° West 145 167 2,700 -2,640 Descending FlightAware
04:16AM 51.4781 -0.2956 270° West 164 189 900 -1,020 Descending FlightAware UK
04:16AM 51.4780 -0.3090 270° West 147 169 2,200 2,880 Climbing FlightAware
04:16AM 51.4780 -0.3200 270° West 148 170 2,100 -4,260 Descending FlightAware
04:17AM 51.4779 -0.3413 270° West 162 186 300 -840 Descending FlightAware UK
04:17AM 51.4780 -0.3530 270° West 148 170 1,700 4,320 Climbing FlightAware
04:17AM 51.4780 -0.3600 270° West 144 166 1,600 -1,200 Descending FlightAware